Time;durP1;ratioP1;P1;durP2;ratioP2;P2;SDS_P1;SDS_P2;PMS_P1;PMS_P2;Temp;Humidity;BMP_temperature;BMP_pressure;BME280_temperature;BME280_humidity;BME280_pressure;Samples;Min_cycle;Max_cycle;Signal;HPM_P1;HPM_P2
2022/01/07 00:00:02;;;;;;;8.10;3.22;;;;;;;-1.47;73.84;97796.20;1836092;78;21101;-63
2022/01/07 00:02:31;;;;;;;8.53;3.40;;;;;;;-1.45;73.85;97800.72;1834658;78;21362;-61
2022/01/07 00:07:33;;;;;;;6.97;2.77;;;;;;;-1.36;73.82;97816.98;1836306;78;20895;-64
2022/01/07 00:09:59;;;;;;;5.70;3.17;;;;;;;-1.34;73.80;97813.63;1836338;78;20931;-64
2022/01/07 00:12:26;;;;;;;8.30;3.55;;;;;;;-1.37;73.85;97824.06;1836218;78;21072;-64
2022/01/07 00:14:53;;;;;;;8.25;3.27;;;;;;;-1.35;73.93;97834.88;1836064;78;20898;-63
2022/01/07 00:17:19;;;;;;;8.08;3.05;;;;;;;-1.34;73.84;97825.98;1836292;78;21334;-62
2022/01/07 00:19:46;;;;;;;7.95;3.33;;;;;;;-1.33;73.96;97829.70;1836265;78;20836;-62
2022/01/07 00:22:13;;;;;;;8.15;3.40;;;;;;;-1.34;73.48;97832.02;1836106;78;20903;-62
2022/01/07 00:24:40;;;;;;;5.35;3.02;;;;;;;-1.34;73.39;97832.56;1836251;78;21104;-60
2022/01/07 00:27:07;;;;;;;7.67;3.40;;;;;;;-1.34;73.74;97836.50;1836130;78;21568;-58
2022/01/07 00:29:33;;;;;;;8.10;2.90;;;;;;;-1.37;73.66;97843.49;1836188;78;20848;-62
2022/01/07 00:32:00;;;;;;;6.28;3.12;;;;;;;-1.42;73.91;97849.41;1836170;78;21019;-58
2022/01/07 00:34:27;;;;;;;7.53;2.80;;;;;;;-1.40;74.10;97853.42;1836138;78;20919;-58
2022/01/07 00:36:55;;;;;;;6.75;3.15;;;;;;;-1.41;73.96;97861.50;1836175;78;21098;-61
2022/01/07 00:39:22;;;;;;;7.42;4.05;;;;;;;-1.46;74.13;97860.06;1836118;78;20840;-59
2022/01/07 00:41:49;;;;;;;5.75;3.40;;;;;;;-1.49;74.21;97863.92;1835738;77;20950;-58
2022/01/07 00:44:15;;;;;;;8.05;3.12;;;;;;;-1.49;74.33;97881.50;1835529;78;20880;-59
2022/01/07 00:46:44;;;;;;;9.38;3.50;;;;;;;-1.53;74.51;97858.78;1835640;78;21367;-61
2022/01/07 00:49:11;;;;;;;5.45;2.62;;;;;;;-1.56;74.68;97865.80;1835786;78;21120;-63
2022/01/07 00:51:39;;;;;;;6.17;2.87;;;;;;;-1.60;74.66;97861.98;1835508;78;20903;-63
2022/01/07 00:54:05;;;;;;;7.15;2.65;;;;;;;-1.64;74.91;97859.50;1835853;78;20855;-59
2022/01/07 00:56:32;;;;;;;5.87;2.83;;;;;;;-1.67;75.06;97870.43;1835558;78;21425;-59
2022/01/07 00:58:59;;;;;;;5.85;3.15;;;;;;;-1.70;75.13;97864.82;1835593;78;20919;-63
2022/01/07 01:01:25;;;;;;;6.87;3.33;;;;;;;-1.70;75.53;97863.00;1835671;78;21107;-64
2022/01/07 01:03:52;;;;;;;7.05;3.00;;;;;;;-1.71;75.50;97869.77;1835710;78;20821;-64
2022/01/07 01:06:19;;;;;;;6.17;3.30;;;;;;;-1.74;75.71;97882.81;1835612;78;21454;-58
2022/01/07 01:08:46;;;;;;;6.97;3.40;;;;;;;-1.71;75.94;97884.20;1835534;78;20903;-61
2022/01/07 01:11:12;;;;;;;6.83;3.10;;;;;;;-1.67;76.10;97881.47;1835594;78;20872;-58
2022/01/07 01:13:39;;;;;;;7.30;3.37;;;;;;;-1.66;76.12;97878.62;1835653;78;21870;-64
2022/01/07 01:16:06;;;;;;;6.15;3.30;;;;;;;-1.67;76.27;97895.38;1835514;78;20883;-63
2022/01/07 01:18:33;;;;;;;5.05;3.12;;;;;;;-1.71;76.47;97906.03;1835572;78;20812;-64
2022/01/07 01:20:59;;;;;;;5.83;2.92;;;;;;;-1.72;76.85;97909.66;1835552;78;21343;-63
2022/01/07 01:23:26;;;;;;;5.50;3.15;;;;;;;-1.75;77.04;97904.86;1835591;78;20890;-63
2022/01/07 01:25:53;;;;;;;5.95;3.00;;;;;;;-1.76;77.38;97916.36;1835563;78;21062;-64
2022/01/07 01:28:19;;;;;;;7.05;3.15;;;;;;;-1.77;77.65;97920.03;1835500;78;21485;-63
2022/01/07 01:30:46;;;;;;;5.53;3.05;;;;;;;-1.79;78.16;97927.28;1835751;78;20860;-61
2022/01/07 01:33:13;;;;;;;5.50;3.27;;;;;;;-1.81;78.58;97931.95;1835839;78;20891;-59
2022/01/07 01:35:42;;;;;;;5.92;3.27;;;;;;;-1.83;79.06;97930.05;1835475;78;20904;-63
2022/01/07 01:38:08;;;;;;;4.05;2.87;;;;;;;-1.85;79.70;97937.34;1835635;78;21099;-63
2022/01/07 01:40:35;;;;;;;6.35;2.87;;;;;;;-1.87;80.06;97938.06;1835490;78;20867;-61
2022/01/07 01:43:02;;;;;;;5.15;3.40;;;;;;;-1.91;80.35;97932.95;1841722;78;20902;-61
2022/01/07 01:45:30;;;;;;;4.58;3.25;;;;;;;-1.91;81.14;97939.52;1841664;78;20903;-61
2022/01/07 01:47:56;;;;;;;7.17;3.47;;;;;;;-1.90;81.46;97941.11;1841796;78;20875;-58
2022/01/07 01:50:23;;;;;;;6.35;3.52;;;;;;;-1.87;81.79;97951.19;1841800;78;21664;-59
2022/01/07 01:52:53;;;;;;;6.22;3.02;;;;;;;-1.84;81.85;97949.46;1841663;78;20884;-58
2022/01/07 01:55:22;;;;;;;4.10;3.30;;;;;;;-1.83;82.00;97958.13;1841562;78;20950;-62
2022/01/07 01:57:50;;;;;;;5.25;3.55;;;;;;;-1.79;82.38;97954.86;1841686;78;20867;-58
2022/01/07 02:00:17;;;;;;;5.30;3.27;;;;;;;-1.78;82.61;97956.98;1841738;78;20926;-64
2022/01/07 02:02:44;;;;;;;5.95;3.35;;;;;;;-1.78;82.85;97961.73;1841600;78;21056;-63
2022/01/07 02:05:13;;;;;;;6.15;3.80;;;;;;;-1.79;83.18;97969.30;1841648;78;20919;-63
2022/01/07 02:07:45;;;;;;;6.55;3.75;;;;;;;-1.77;83.29;97966.48;1841639;78;20852;-59
2022/01/07 02:10:14;;;;;;;5.55;3.92;;;;;;;-1.74;83.58;97969.47;1841795;78;20879;-61
2022/01/07 02:12:41;;;;;;;6.65;3.70;;;;;;;-1.71;83.61;97975.63;1841920;78;20930;-63
2022/01/07 02:15:10;;;;;;;6.15;4.08;;;;;;;-1.71;83.68;97982.19;1841776;78;21764;-65
2022/01/07 02:17:43;;;;;;;5.37;3.98;;;;;;;-1.72;84.00;97987.13;1841501;78;20962;-59
2022/01/07 02:20:11;;;;;;;5.78;3.98;;;;;;;-1.72;84.08;97992.38;1841697;78;20868;-62
2022/01/07 02:22:38;;;;;;;6.05;3.92;;;;;;;-1.74;84.10;97994.42;1841570;78;20974;-57
2022/01/07 02:25:06;;;;;;;8.45;4.33;;;;;;;-1.73;84.20;98002.61;1841949;78;21287;-62
2022/01/07 02:27:37;;;;;;;8.18;4.30;;;;;;;-1.68;84.20;98006.72;1841570;78;21112;-60
2022/01/07 02:30:07;;;;;;;6.20;4.50;;;;;;;-1.64;84.23;98003.95;1841558;78;20887;-62
2022/01/07 02:32:34;;;;;;;6.17;4.00;;;;;;;-1.56;84.25;98007.66;1841999;78;21217;-62
2022/01/07 02:35:00;;;;;;;6.50;4.53;;;;;;;-1.54;84.18;98006.92;1841656;78;20899;-62
2022/01/07 02:37:27;;;;;;;6.08;4.20;;;;;;;-1.54;83.99;98009.55;1841802;78;20852;-64
2022/01/07 02:39:54;;;;;;;6.45;4.62;;;;;;;-1.56;83.96;98014.22;1841703;78;21173;-63
2022/01/07 02:42:21;;;;;;;8.30;4.90;;;;;;;-1.57;83.86;98020.48;1838069;77;20867;-61
2022/01/07 02:44:48;;;;;;;7.90;4.55;;;;;;;-1.57;83.82;98026.23;1835707;78;20943;-59
2022/01/07 02:47:16;;;;;;;7.37;4.17;;;;;;;-1.56;83.45;98032.61;1835506;78;20890;-63
2022/01/07 02:49:42;;;;;;;5.95;4.37;;;;;;;-1.58;83.39;98029.89;1835550;78;20824;-59
2022/01/07 02:52:09;;;;;;;5.80;4.35;;;;;;;-1.59;83.35;98038.27;1835528;78;21177;-58
2022/01/07 02:54:36;;;;;;;5.65;4.17;;;;;;;-1.57;83.21;98036.23;1835404;78;20848;-63
2022/01/07 02:57:04;;;;;;;6.95;4.80;;;;;;;-1.50;83.31;98050.13;1835521;78;20967;-62
2022/01/07 02:59:31;;;;;;;5.70;4.28;;;;;;;-1.46;83.06;98045.28;1835730;78;20911;-62
2022/01/07 03:01:57;;;;;;;7.83;4.95;;;;;;;-1.48;82.88;98052.03;1835591;78;20994;-62
2022/01/07 03:04:26;;;;;;;6.37;4.12;;;;;;;-1.49;82.93;98067.52;1835872;78;21822;-63
2022/01/07 03:06:53;;;;;;;6.22;4.80;;;;;;;-1.48;82.77;98055.98;1835493;78;20899;-57
2022/01/07 03:09:20;;;;;;;6.67;4.72;;;;;;;-1.45;82.66;98065.26;1835655;78;20903;-61
2022/01/07 03:11:46;;;;;;;5.85;4.25;;;;;;;-1.43;82.43;98071.91;1835654;78;20879;-62
2022/01/07 03:14:16;;;;;;;7.50;4.37;;;;;;;-1.43;82.46;98067.16;1835587;78;20825;-62
2022/01/07 03:16:44;;;;;;;6.78;4.17;;;;;;;-1.40;82.55;98066.75;1835594;78;21391;-57
2022/01/07 03:19:11;;;;;;;6.42;4.70;;;;;;;-1.39;82.38;98069.15;1835599;78;20935;-58
2022/01/07 03:21:38;;;;;;;6.28;4.20;;;;;;;-1.40;82.27;98081.20;1835655;78;20947;-63
2022/01/07 03:24:05;;;;;;;5.95;3.80;;;;;;;-1.43;81.96;98071.91;1835747;78;21327;-62
2022/01/07 03:26:32;;;;;;;5.17;3.75;;;;;;;-1.44;82.22;98076.86;1835671;78;20869;-59
2022/01/07 03:28:59;;;;;;;6.12;3.98;;;;;;;-1.42;82.25;98080.11;1835758;78;21733;-64
2022/01/07 03:31:26;;;;;;;6.12;4.35;;;;;;;-1.37;81.98;98085.23;1835592;78;20879;-62
2022/01/07 03:33:53;;;;;;;6.28;3.85;;;;;;;-1.35;81.90;98084.50;1835624;78;20816;-62
2022/01/07 03:36:19;;;;;;;5.33;3.55;;;;;;;-1.33;81.40;98090.34;1835711;78;21404;-62
2022/01/07 03:38:46;;;;;;;6.53;3.87;;;;;;;-1.35;80.86;98097.14;1835658;78;20871;-63
2022/01/07 03:41:13;;;;;;;4.00;3.00;;;;;;;-1.39;80.48;98094.11;1835655;78;21763;-62
2022/01/07 03:43:40;;;;;;;6.10;3.30;;;;;;;-1.42;80.42;98082.73;1835586;78;20950;-62
2022/01/07 03:46:06;;;;;;;5.53;3.50;;;;;;;-1.42;80.09;98096.37;1835651;78;21406;-62
2022/01/07 03:48:33;;;;;;;4.22;3.25;;;;;;;-1.41;79.59;98093.52;1835639;78;20854;-62
2022/01/07 03:51:00;;;;;;;4.67;2.87;;;;;;;-1.38;79.83;98098.87;1835663;78;20911;-60
2022/01/07 03:53:26;;;;;;;5.10;3.17;;;;;;;-1.36;79.89;98092.89;1835656;78;21096;-59
2022/01/07 03:55:53;;;;;;;3.65;2.90;;;;;;;-1.32;79.38;98101.98;1835551;78;20852;-60
2022/01/07 03:58:20;;;;;;;4.80;2.95;;;;;;;-1.31;79.05;98098.81;1835592;78;20848;-63
2022/01/07 04:00:47;;;;;;;4.87;3.05;;;;;;;-1.33;78.71;98102.17;1835797;78;21371;-60
2022/01/07 04:03:16;;;;;;;4.67;3.10;;;;;;;-1.33;78.71;98107.42;1835660;78;20899;-61
2022/01/07 04:05:44;;;;;;;5.42;3.22;;;;;;;-1.35;78.80;98110.78;1835955;78;21442;-60
2022/01/07 04:08:11;;;;;;;4.72;2.85;;;;;;;-1.35;78.80;98114.72;1835561;78;20953;-62
2022/01/07 04:10:38;;;;;;;7.10;3.15;;;;;;;-1.32;78.83;98119.56;1835888;78;20927;-62
2022/01/07 04:13:05;;;;;;;6.55;3.50;;;;;;;-1.32;78.69;98127.45;1835595;78;20872;-63
2022/01/07 04:15:32;;;;;;;4.87;3.40;;;;;;;-1.33;78.57;98122.69;1835586;78;20904;-60
2022/01/07 04:17:59;;;;;;;6.37;3.87;;;;;;;-1.31;78.80;98129.04;1835610;78;21107;-59
2022/01/07 04:20:31;;;;;;;5.47;4.20;;;;;;;-1.33;78.90;98145.53;1835562;78;20852;-61
2022/01/07 04:22:58;;;;;;;5.50;4.20;;;;;;;-1.34;79.17;98145.25;1836045;78;20990;-63
2022/01/07 04:25:25;;;;;;;5.58;4.65;;;;;;;-1.37;79.44;98141.72;1835587;78;20872;-63
2022/01/07 04:27:59;;;;;;;5.10;3.90;;;;;;;-1.39;79.57;98144.03;1835793;78;20958;-63
2022/01/07 04:30:29;;;;;;;6.55;4.60;;;;;;;-1.42;79.65;98152.36;1833773;78;21128;-61
2022/01/07 04:32:56;;;;;;;8.10;5.40;;;;;;;-1.44;79.76;98158.84;1835452;78;20927;-60
2022/01/07 04:35:23;;;;;;;5.87;4.30;;;;;;;-1.44;79.72;98158.31;1835777;78;20875;-59
2022/01/07 04:37:50;;;;;;;8.25;5.05;;;;;;;-1.47;79.54;98160.06;1835552;78;20950;-63
2022/01/07 04:40:17;;;;;;;6.08;4.58;;;;;;;-1.48;79.69;98158.94;1835632;78;20883;-63
2022/01/07 04:42:44;;;;;;;6.12;4.47;;;;;;;-1.47;79.66;98169.26;1841425;77;21160;-59
2022/01/07 04:45:11;;;;;;;5.08;3.52;;;;;;;-1.47;79.32;98164.50;1847421;77;20911;-63
2022/01/07 04:47:38;;;;;;;7.60;3.95;;;;;;;-1.49;79.14;98172.61;1847378;77;20985;-61
2022/01/07 04:50:11;;;;;;;5.70;3.62;;;;;;;-1.52;79.10;98170.39;1847371;77;20831;-64
2022/01/07 04:52:41;;;;;;;7.00;4.28;;;;;;;-1.52;78.95;98176.95;1847531;77;21379;-64
2022/01/07 04:55:08;;;;;;;9.00;4.37;;;;;;;-1.53;78.91;98178.48;1847537;77;21143;-62
2022/01/07 04:57:35;;;;;;;5.28;3.75;;;;;;;-1.53;78.60;98179.80;1847262;77;21378;-63
2022/01/07 05:00:04;;;;;;;5.60;3.92;;;;;;;-1.57;78.46;98178.08;1847377;77;20864;-65
2022/01/07 05:02:32;;;;;;;5.33;3.50;;;;;;;-1.57;78.26;98180.71;1847357;77;20899;-62
2022/01/07 05:04:59;;;;;;;6.10;2.83;;;;;;;-1.59;77.48;98190.62;1847470;77;20970;-63
2022/01/07 05:07:25;;;;;;;5.35;3.47;;;;;;;-1.58;77.51;98201.41;1847335;77;21093;-64
2022/01/07 05:09:52;;;;;;;4.60;3.30;;;;;;;-1.59;77.43;98191.94;1847522;77;21415;-64
2022/01/07 05:12:18;;;;;;;6.83;3.55;;;;;;;-1.63;77.22;98199.94;1847356;77;20919;-64
2022/01/07 05:14:45;;;;;;;5.40;3.27;;;;;;;-1.64;77.28;98204.07;1847202;77;20856;-60
2022/01/07 05:17:11;;;;;;;6.47;3.42;;;;;;;-1.65;77.43;98212.45;1847279;77;20903;-59
2022/01/07 05:19:38;;;;;;;6.90;3.22;;;;;;;-1.63;77.14;98212.27;1847346;77;21772;-59
2022/01/07 05:22:05;;;;;;;5.72;3.37;;;;;;;-1.61;77.08;98220.23;1847257;77;20844;-61
2022/01/07 05:24:32;;;;;;;4.47;2.72;;;;;;;-1.60;76.68;98221.05;1847364;77;20884;-62
2022/01/07 05:26:58;;;;;;;4.45;2.83;;;;;;;-1.62;76.39;98230.44;1847331;77;20974;-63
2022/01/07 05:29:25;;;;;;;7.33;2.90;;;;;;;-1.63;76.72;98228.84;1847378;77;20824;-63
2022/01/07 05:31:52;;;;;;;4.83;3.05;;;;;;;-1.60;76.83;98235.50;1847366;77;21062;-59
2022/01/07 05:34:19;;;;;;;4.28;2.67;;;;;;;-1.58;76.67;98242.13;1847244;77;20934;-60
2022/01/07 05:36:45;;;;;;;6.28;3.25;;;;;;;-1.56;76.37;98245.38;1847443;77;20890;-65
2022/01/07 05:39:12;;;;;;;4.92;3.12;;;;;;;-1.55;76.51;98248.80;1847338;77;21489;-60
2022/01/07 05:41:38;;;;;;;5.37;3.10;;;;;;;-1.56;76.69;98248.02;1847375;77;21001;-61
2022/01/07 05:44:06;;;;;;;5.30;4.00;;;;;;;-1.60;76.90;98246.79;1836335;77;21741;-61
2022/01/07 05:46:33;;;;;;;5.72;3.58;;;;;;;-1.61;77.19;98245.19;1835374;78;20876;-64
2022/01/07 05:49:02;;;;;;;5.90;3.77;;;;;;;-1.64;77.21;98252.16;1835512;78;21501;-59
2022/01/07 05:51:29;;;;;;;6.35;3.40;;;;;;;-1.64;76.93;98260.05;1835530;78;20892;-62
2022/01/07 05:53:56;;;;;;;5.78;3.30;;;;;;;-1.64;76.79;98262.67;1835849;78;20895;-61
2022/01/07 05:56:22;;;;;;;4.87;3.40;;;;;;;-1.66;76.18;98274.39;1835502;78;21704;-62
2022/01/07 05:58:49;;;;;;;5.03;3.00;;;;;;;-1.68;75.78;98267.23;1835467;78;20915;-62
2022/01/07 06:01:16;;;;;;;5.67;3.00;;;;;;;-1.71;74.90;98276.32;1835537;78;20895;-59
2022/01/07 06:03:43;;;;;;;3.72;2.35;;;;;;;-1.70;75.25;98281.89;1835801;78;20868;-58
2022/01/07 06:06:09;;;;;;;5.03;2.70;;;;;;;-1.65;75.05;98283.37;1835564;78;21528;-63
2022/01/07 06:08:37;;;;;;;5.55;3.35;;;;;;;-1.64;74.73;98286.31;1835543;78;21161;-63
2022/01/07 06:11:04;;;;;;;4.95;2.90;;;;;;;-1.64;74.72;98302.06;1835481;78;20789;-63
2022/01/07 06:13:30;;;;;;;3.95;3.08;;;;;;;-1.65;74.68;98299.13;1835526;78;20899;-63
2022/01/07 06:15:57;;;;;;;6.65;3.47;;;;;;;-1.67;74.42;98301.16;1835673;78;21398;-61
2022/01/07 06:18:24;;;;;;;4.90;3.42;;;;;;;-1.65;74.70;98312.79;1835563;78;20859;-61
2022/01/07 06:20:50;;;;;;;7.08;3.83;;;;;;;-1.62;74.85;98308.42;1835546;78;21101;-61
2022/01/07 06:23:17;;;;;;;5.03;3.70;;;;;;;-1.61;74.74;98321.37;1835686;78;21264;-58
2022/01/07 06:25:48;;;;;;;4.83;3.55;;;;;;;-1.62;74.78;98319.74;1835653;78;21335;-63
2022/01/07 06:28:13;;;;;;;6.55;4.10;;;;;;;-1.61;74.96;98333.69;1835132;77;20902;-65
2022/01/07 06:30:39;;;;;;;5.30;3.70;;;;;;;-1.62;74.96;98332.87;1835655;78;20872;-63
2022/01/07 06:33:06;;;;;;;7.75;4.35;;;;;;;-1.65;75.03;98333.27;1835541;78;21067;-59
2022/01/07 06:35:32;;;;;;;5.03;3.85;;;;;;;-1.68;75.23;98341.58;1835637;78;21427;-62
2022/01/07 06:37:59;;;;;;;7.70;4.22;;;;;;;-1.69;75.06;98345.20;1835892;78;20872;-60
2022/01/07 06:40:26;;;;;;;8.40;5.00;;;;;;;-1.70;74.95;98356.74;1835889;78;21379;-61
2022/01/07 06:42:52;;;;;;;6.80;4.28;;;;;;;-1.68;75.18;98356.53;1835641;77;20816;-63
2022/01/07 06:45:20;;;;;;;5.10;3.70;;;;;;;-1.70;74.60;98356.74;1835667;78;21099;-65
2022/01/07 06:47:47;;;;;;;9.35;5.17;;;;;;;-1.74;74.67;98364.70;1835670;78;21303;-61
2022/01/07 06:50:13;;;;;;;6.35;3.87;;;;;;;-1.79;74.83;98368.44;1835694;78;20895;-59
2022/01/07 06:52:40;;;;;;;6.55;4.42;;;;;;;-1.85;74.91;98370.57;1835661;78;20946;-59
2022/01/07 06:55:09;;;;;;;6.60;4.17;;;;;;;-1.89;75.07;98373.80;1835637;78;21097;-62
2022/01/07 06:57:36;;;;;;;5.62;4.40;;;;;;;-1.90;74.94;98379.55;1835759;78;21087;-63
2022/01/07 07:00:05;;;;;;;7.83;4.62;;;;;;;-1.92;75.04;98376.33;1835603;78;20793;-64
2022/01/07 07:02:32;;;;;;;7.37;5.35;;;;;;;-1.89;75.08;98379.06;1835688;78;20888;-60
2022/01/07 07:04:59;;;;;;;6.92;4.42;;;;;;;-1.89;75.23;98379.88;1835652;78;21478;-59
2022/01/07 07:07:26;;;;;;;7.85;5.20;;;;;;;-1.85;75.43;98383.70;1835707;78;20848;-58
2022/01/07 07:09:52;;;;;;;7.83;4.53;;;;;;;-1.83;75.40;98382.98;1835952;78;21071;-62
2022/01/07 07:12:19;;;;;;;7.70;4.65;;;;;;;-1.83;74.98;98388.24;1835840;78;21494;-61
2022/01/07 07:14:46;;;;;;;8.43;5.22;;;;;;;-1.88;74.69;98393.28;1836362;78;20887;-59
2022/01/07 07:17:13;;;;;;;6.97;4.65;;;;;;;-1.92;74.94;98392.58;1835643;78;20904;-59
2022/01/07 07:19:39;;;;;;;10.28;6.28;;;;;;;-1.98;74.63;98395.52;1835691;78;20895;-62
2022/01/07 07:22:06;;;;;;;8.70;4.75;;;;;;;-2.03;74.94;98397.94;1835565;78;21101;-59
2022/01/07 07:24:33;;;;;;;9.63;6.67;;;;;;;-2.07;74.92;98399.32;1835448;78;20895;-59
2022/01/07 07:27:00;;;;;;;9.70;6.10;;;;;;;-2.13;74.98;98405.38;1835647;78;20880;-62
2022/01/07 07:29:27;;;;;;;7.42;5.47;;;;;;;-2.12;75.14;98405.70;1835641;78;20864;-61
2022/01/07 07:31:56;;;;;;;9.53;4.42;;;;;;;-2.10;74.94;98398.43;1835786;78;20860;-60
2022/01/07 07:37:05;;;;;;;6.85;4.25;;;;;;;-2.15;74.91;98410.03;1835623;78;20883;-63
2022/01/07 07:39:32;;;;;;;8.50;5.12;;;;;;;-2.11;74.94;98416.48;1835673;78;20849;-63
2022/01/07 07:41:59;;;;;;;7.33;4.70;;;;;;;-2.11;74.85;98425.67;1835606;78;20958;-63
2022/01/07 07:44:27;;;;;;;8.00;4.22;;;;;;;-2.12;74.56;98430.64;1835550;77;20859;-58
2022/01/07 07:46:54;;;;;;;6.92;4.47;;;;;;;-2.15;74.52;98430.53;1835493;78;21022;-59
2022/01/07 07:49:21;;;;;;;6.47;4.45;;;;;;;-2.14;74.72;98432.63;1835541;78;20947;-59
2022/01/07 07:51:47;;;;;;;10.10;6.10;;;;;;;-2.14;74.62;98429.50;1835729;78;20852;-58
2022/01/07 07:54:14;;;;;;;7.80;4.45;;;;;;;-2.13;74.47;98430.31;1835834;78;21355;-61
2022/01/07 07:56:41;;;;;;;6.10;4.53;;;;;;;-2.11;74.43;98429.61;1835645;78;20884;-61
2022/01/07 07:59:08;;;;;;;6.53;4.17;;;;;;;-2.18;74.26;98425.67;1835630;78;21072;-60
2022/01/07 08:01:36;;;;;;;8.95;3.98;;;;;;;-2.17;74.26;98442.23;1835539;78;20883;-59
2022/01/07 08:04:04;;;;;;;6.12;3.92;;;;;;;-2.22;73.78;98446.77;1754196;78;20911;-58
2022/01/07 08:06:31;;;;;;;7.87;4.53;;;;;;;-2.24;74.00;98447.96;1835590;78;20950;-60
2022/01/07 08:08:58;;;;;;;7.78;3.52;;;;;;;-2.20;74.12;98451.80;1835869;78;21332;-62
2022/01/07 08:11:31;;;;;;;5.95;3.35;;;;;;;-2.11;73.84;98454.55;1835524;78;20872;-64
2022/01/07 08:16:39;;;;;;;7.20;3.60;;;;;;;-2.08;73.50;98455.47;1835698;78;20896;-63
2022/01/07 08:19:06;;;;;;;4.70;3.20;;;;;;;-2.06;73.13;98452.14;1835465;78;20844;-64
2022/01/07 08:21:34;;;;;;;7.12;3.72;;;;;;;-2.02;73.01;98461.22;1835620;78;20854;-64
2022/01/07 08:24:01;;;;;;;4.72;3.00;;;;;;;-2.00;73.33;98455.27;1835510;78;22211;-60
2022/01/07 08:26:28;;;;;;;6.40;4.05;;;;;;;-2.01;73.16;98456.30;1835550;78;20812;-59
2022/01/07 08:28:59;;;;;;;5.40;3.85;;;;;;;-2.01;73.00;98461.55;1835594;78;20864;-63
2022/01/07 08:36:38;;;;;;;6.05;3.60;;;;;;;-2.02;72.35;98473.04;1835700;78;21105;-63
2022/01/07 08:39:06;;;;;;;4.97;2.80;;;;;;;-2.06;72.46;98470.52;1835532;78;20822;-63
2022/01/07 08:41:33;;;;;;;6.22;3.42;;;;;;;-2.03;72.51;98477.19;1835573;78;20864;-63
2022/01/07 08:44:01;;;;;;;6.70;3.70;;;;;;;-1.99;72.44;98477.91;1837093;77;21422;-62
2022/01/07 08:46:28;;;;;;;4.55;3.02;;;;;;;-1.91;72.76;98480.35;1838746;78;20883;-64
2022/01/07 08:48:54;;;;;;;5.55;3.33;;;;;;;-1.86;72.63;98479.23;1838515;78;21099;-61
2022/01/07 08:51:21;;;;;;;6.03;3.30;;;;;;;-1.83;71.18;98481.46;1838462;78;21414;-61
2022/01/07 08:53:48;;;;;;;6.53;3.87;;;;;;;-1.85;71.44;98479.55;1838776;78;20899;-62
2022/01/07 08:56:16;;;;;;;11.38;3.83;;;;;;;-1.86;71.53;98471.35;1838484;78;21371;-63
2022/01/07 08:58:43;;;;;;;6.65;3.87;;;;;;;-1.87;71.15;98468.44;1838542;78;20820;-60
2022/01/07 09:01:10;;;;;;;6.30;3.27;;;;;;;-1.81;71.72;98470.25;1838614;78;21739;-58
2022/01/07 09:03:37;;;;;;;5.70;3.42;;;;;;;-1.72;70.94;98463.79;1838434;78;21252;-61
2022/01/07 09:06:04;;;;;;;5.47;3.40;;;;;;;-1.73;69.99;98471.39;1838508;78;20894;-64
2022/01/07 09:08:31;;;;;;;7.83;4.28;;;;;;;-1.80;70.29;98467.94;1838526;78;20915;-63
2022/01/07 09:10:58;;;;;;;6.90;2.95;;;;;;;-1.79;70.69;98469.54;1838535;78;21338;-63
2022/01/07 09:13:26;;;;;;;6.25;3.47;;;;;;;-1.79;70.46;98469.54;1838436;78;20848;-64
2022/01/07 09:15:54;;;;;;;6.40;3.30;;;;;;;-1.75;70.61;98466.84;1838374;78;20860;-59
2022/01/07 09:18:21;;;;;;;6.80;2.80;;;;;;;-1.65;70.67;98472.48;1838595;78;21508;-64
2022/01/07 09:20:48;;;;;;;5.22;2.70;;;;;;;-1.51;70.30;98467.55;1838553;78;20883;-64
2022/01/07 09:23:15;;;;;;;8.18;3.20;;;;;;;-1.41;69.68;98464.02;1838525;78;20864;-61
2022/01/07 09:25:42;;;;;;;5.92;2.75;;;;;;;-1.28;69.41;98470.28;1838655;78;39744;-64
2022/01/07 09:28:09;;;;;;;4.33;2.60;;;;;;;-1.19;69.02;98471.69;1838433;78;20938;-63
2022/01/07 09:30:36;;;;;;;5.15;2.70;;;;;;;-1.17;67.91;98470.97;1838502;78;20890;-61
2022/01/07 09:33:03;;;;;;;5.62;2.47;;;;;;;-1.26;67.15;98468.25;1838318;78;20914;-62
2022/01/07 09:35:30;;;;;;;4.45;2.67;;;;;;;-1.28;67.62;98463.21;1838693;78;21473;-58
2022/01/07 09:37:57;;;;;;;5.45;2.77;;;;;;;-1.21;67.29;98473.22;1838490;78;21170;-58
2022/01/07 09:40:24;;;;;;;5.87;3.58;;;;;;;-1.15;67.23;98465.81;1838402;78;20883;-62
2022/01/07 09:43:04;;;;;;;5.10;2.90;;;;;;;-1.05;67.06;98469.34;1838699;78;21375;-58
2022/01/07 09:45:32;;;;;;;4.22;2.50;;;;;;;-0.98;66.60;98470.14;1838455;78;20954;-64
2022/01/07 09:48:01;;;;;;;5.62;2.83;;;;;;;-1.01;65.44;98471.86;1838849;78;20923;-59
2022/01/07 09:50:28;;;;;;;3.72;2.00;;;;;;;-1.07;65.00;98484.52;1838469;77;21103;-63
2022/01/07 09:52:54;;;;;;;5.00;3.05;;;;;;;-1.12;65.06;98481.19;1838426;78;20939;-64
2022/01/07 09:55:21;;;;;;;5.35;2.22;;;;;;;-1.14;65.80;98462.69;1838652;78;20868;-63
2022/01/07 09:57:48;;;;;;;5.67;2.87;;;;;;;-1.11;64.59;98464.41;1838347;78;20860;-59
2022/01/07 10:00:15;;;;;;;5.03;2.67;;;;;;;-1.11;64.77;98463.10;1838491;78;20884;-59
2022/01/07 10:02:58;;;;;;;4.58;2.30;;;;;;;-1.10;64.42;98465.20;1838572;78;21847;-61
2022/01/07 10:05:25;;;;;;;4.95;2.22;;;;;;;-1.15;64.16;98475.52;1835817;78;20887;-59
2022/01/07 10:07:52;;;;;;;7.87;2.50;;;;;;;-1.18;64.86;98471.50;1838692;78;21374;-63
2022/01/07 10:10:19;;;;;;;4.83;2.55;;;;;;;-1.07;65.73;98467.43;1808865;78;20907;-61
2022/01/07 10:13:06;;;;;;;4.22;2.42;;;;;;;-0.88;65.89;98465.27;1838692;78;20893;-64
2022/01/07 10:15:34;;;;;;;5.03;1.95;;;;;;;-0.71;66.10;98467.23;1838552;78;21113;-60
2022/01/07 10:18:13;;;;;;;5.47;1.90;;;;;;;-0.51;65.52;98471.63;1838863;78;20865;-60
2022/01/07 10:20:47;;;;;;;5.78;2.60;;;;;;;-0.43;65.70;98461.70;1838630;78;20896;-64
2022/01/07 10:23:25;;;;;;;3.75;1.80;;;;;;;-0.19;66.61;98461.49;1838936;78;21327;-59
2022/01/07 10:25:56;;;;;;;3.37;1.90;;;;;;;0.04;65.91;98464.91;1838680;78;20907;-64
2022/01/07 10:28:30;;;;;;;4.92;2.22;;;;;;;0.17;64.47;98462.99;1838758;78;21121;-65
2022/01/07 10:31:02;;;;;;;4.15;1.77;;;;;;;0.18;62.79;98472.52;1838140;78;20832;-61
2022/01/07 10:33:29;;;;;;;3.83;1.90;;;;;;;0.06;62.38;98462.86;1837257;78;20906;-60
2022/01/07 10:36:07;;;;;;;6.97;2.17;;;;;;;-0.07;62.50;98469.81;1838595;78;21391;-64
2022/01/07 10:38:38;;;;;;;5.80;2.27;;;;;;;-0.19;63.33;98476.76;1830248;78;20903;-60
2022/01/07 10:41:05;;;;;;;4.83;2.10;;;;;;;-0.28;62.82;98483.79;1835944;78;21691;-62
2022/01/07 10:43:34;;;;;;;4.60;2.55;;;;;;;-0.35;63.36;98470.66;1838924;77;20864;-61
2022/01/07 10:49:00;;;;;;;6.17;2.30;;;;;;;-0.30;63.75;98477.92;1847744;77;20950;-61
2022/01/07 10:51:38;;;;;;;5.17;2.25;;;;;;;-0.33;63.09;98481.78;1847598;77;20860;-64
2022/01/07 10:54:09;;;;;;;3.87;1.92;;;;;;;-0.37;63.25;98488.99;1847352;77;21117;-64
2022/01/07 10:56:44;;;;;;;4.53;1.80;;;;;;;-0.41;62.46;98484.67;1847748;77;20812;-62
2022/01/07 11:07:09;;;;;;;7.40;2.20;;;;;;;-0.61;61.73;98483.91;1847453;77;21096;-60
2022/01/07 11:09:30;;;;;;;3.20;2.05;;;;;;;-0.66;61.64;98484.25;1846187;77;20914;-61
2022/01/07 11:12:00;;;;;;;3.80;1.72;;;;;;;-0.68;62.16;98491.02;1847464;77;20851;-65
2022/01/07 11:14:30;;;;;;;2.58;1.85;;;;;;;-0.65;62.61;98487.16;1847431;77;20906;-63
2022/01/07 11:16:58;;;;;;;4.87;2.20;;;;;;;-0.58;63.26;98491.39;1847631;77;20863;-66
2022/01/07 11:19:31;;;;;;;3.75;2.02;;;;;;;-0.50;62.59;98488.55;1847276;77;21027;-63
2022/01/07 11:21:59;;;;;;;5.17;2.33;;;;;;;-0.49;62.92;98487.52;1847557;77;20870;-59
2022/01/07 11:24:36;;;;;;;4.62;2.12;;;;;;;-0.46;63.33;98495.00;1847445;77;21429;-59
2022/01/07 11:27:18;;;;;;;3.33;1.80;;;;;;;-0.41;64.16;98500.45;1847740;77;20896;-59
2022/01/07 11:30:03;;;;;;;4.50;2.37;;;;;;;-0.29;63.48;98509.33;1847447;77;20855;-59
2022/01/07 11:32:41;;;;;;;4.78;2.33;;;;;;;-0.07;63.82;98504.55;1847447;77;21093;-58
2022/01/07 11:35:23;;;;;;;4.70;2.42;;;;;;;0.10;62.88;98503.05;1847292;77;20902;-59
2022/01/07 11:37:58;;;;;;;4.92;2.22;;;;;;;0.20;60.93;98499.96;1847575;77;21378;-64
2022/01/07 11:40:40;;;;;;;2.95;2.30;;;;;;;0.18;61.49;98499.37;1847671;77;21343;-59
2022/01/07 11:43:24;;;;;;;5.85;2.40;;;;;;;0.15;60.85;98494.52;1847577;77;21449;-59
2022/01/07 11:45:51;;;;;;;3.35;2.25;;;;;;;0.08;60.18;98493.75;1836710;77;21454;-60
2022/01/07 11:48:25;;;;;;;4.30;2.15;;;;;;;0.02;60.50;98496.73;1835576;78;20876;-62
2022/01/07 11:51:01;;;;;;;3.80;2.40;;;;;;;0.06;60.97;98487.88;1835532;78;20904;-63
2022/01/07 11:53:46;;;;;;;5.03;2.40;;;;;;;0.19;61.27;98487.30;1835651;78;20832;-64
2022/01/07 11:56:15;;;;;;;7.25;2.92;;;;;;;0.34;60.75;98478.59;1835866;78;21386;-61
2022/01/07 11:58:51;;;;;;;6.37;2.80;;;;;;;0.50;60.57;98479.39;1835611;78;21857;-61
2022/01/07 12:01:28;;;;;;;5.33;2.72;;;;;;;0.52;59.10;98472.58;1835412;77;21375;-61